Edna, Oklahoma
Current Conditions -  °F | °C
As of 4:55 PM on Saturday 25 Oct 2014 (Local Time) from KOKM Reporting Station
Clear Clear  
Wind Chill: 87°   Ceiling: Unl
Heat Index: 87°   Visibility: 10mi
Dew Point: 62°   Wind: 6mph
Humidity: 43%   Direction: 170°S
Pressure: 30.01"   Gusts: 16mph
Location:  35.7718°N, 96.3174°W
Report Text: KOKM 252155Z AUTO 17005G14KT 10SM CLR 31/17 A3001 RMK AO2 T03050165
Loading
Personal Weather Stations






























Interactive Weather Map
Tropical Storm Tracking
New forecast layout! Learn more

10-Day Weather Forecast

Advertisements
Track Severe Weather on mobile